Weather at Antalya International Airport

Public forecast

Using degrees Celsius for public forecast. Weather courtesy of forecast.io.

Current aviation weather report (METAR) for Antalya International Airport

Retrieved 2021/03/02 19:20 UTC (31 minutes ago):

LTAI 021920Z 30009KT 9999 BKN030 BKN090 11/01 Q1019 NOSIG RMK RWY18C 29010KT RWY36R 29009KT 260V320 RWY18L 31011KT

Aviation forecast (TAF) for Antalya International Airport

Forecast is more than 6 hours old.

Retrieved 2021/03/02 12:03 UTC (8 hours ago):

TAF LTAI 021040Z 0212/0312 06009KT 9999 BKN030 BECMG 0215/0218 34010KT -SHRA PROB40 TEMPO 0221/0224 -TSRA FEW020CB BKN030 BECMG 0309/0312 SCT030